sensor_id;sensor_type;location;lat;lon;timestamp;P1;durP1;ratioP1;P2;durP2;ratioP2
55589;SDS011;41452;42.780;23.116;2023-08-06T00:00:24;8.50;;;2.80;;
55589;SDS011;41452;42.780;23.116;2023-08-06T00:02:49;7.82;;;3.03;;
55589;SDS011;41452;42.780;23.116;2023-08-06T00:05:15;9.88;;;3.42;;
55589;SDS011;41452;42.780;23.116;2023-08-06T00:07:45;10.07;;;2.97;;
55589;SDS011;41452;42.780;23.116;2023-08-06T00:10:11;7.85;;;2.72;;
55589;SDS011;41452;42.780;23.116;2023-08-06T00:12:37;5.85;;;2.50;;
55589;SDS011;41452;42.780;23.116;2023-08-06T00:15:02;7.43;;;2.83;;
55589;SDS011;41452;42.780;23.116;2023-08-06T00:17:28;8.52;;;2.47;;
55589;SDS011;41452;42.780;23.116;2023-08-06T00:19:53;9.38;;;3.20;;
55589;SDS011;41452;42.780;23.116;2023-08-06T00:22:18;8.10;;;2.55;;
55589;SDS011;41452;42.780;23.116;2023-08-06T00:24:44;6.28;;;3.08;;
55589;SDS011;41452;42.780;23.116;2023-08-06T00:27:09;10.02;;;3.75;;
55589;SDS011;41452;42.780;23.116;2023-08-06T00:29:34;7.43;;;3.13;;
55589;SDS011;41452;42.780;23.116;2023-08-06T00:32:00;13.73;;;2.80;;
55589;SDS011;41452;42.780;23.116;2023-08-06T00:34:25;5.30;;;2.65;;
55589;SDS011;41452;42.780;23.116;2023-08-06T00:36:51;8.68;;;3.00;;
55589;SDS011;41452;42.780;23.116;2023-08-06T00:39:16;7.63;;;3.10;;
55589;SDS011;41452;42.780;23.116;2023-08-06T00:41:41;8.65;;;2.85;;
55589;SDS011;41452;42.780;23.116;2023-08-06T00:44:07;5.75;;;3.05;;
55589;SDS011;41452;42.780;23.116;2023-08-06T00:46:32;9.88;;;3.05;;
55589;SDS011;41452;42.780;23.116;2023-08-06T00:48:58;6.43;;;2.65;;
55589;SDS011;41452;42.780;23.116;2023-08-06T00:51:24;7.65;;;2.60;;
55589;SDS011;41452;42.780;23.116;2023-08-06T00:53:50;9.38;;;2.97;;
55589;SDS011;41452;42.780;23.116;2023-08-06T00:56:17;11.52;;;3.15;;
55589;SDS011;41452;42.780;23.116;2023-08-06T00:58:42;5.70;;;2.75;;
55589;SDS011;41452;42.780;23.116;2023-08-06T01:01:09;11.55;;;3.35;;
55589;SDS011;41452;42.780;23.116;2023-08-06T01:03:35;9.68;;;3.03;;
55589;SDS011;41452;42.780;23.116;2023-08-06T01:06:01;11.77;;;3.05;;
55589;SDS011;41452;42.780;23.116;2023-08-06T01:11:26;8.05;;;2.92;;
55589;SDS011;41452;42.780;23.116;2023-08-06T01:16:52;9.20;;;2.85;;
55589;SDS011;41452;42.780;23.116;2023-08-06T01:19:19;5.63;;;2.38;;
55589;SDS011;41452;42.780;23.116;2023-08-06T01:21:46;9.05;;;2.47;;
55589;SDS011;41452;42.780;23.116;2023-08-06T01:24:11;5.28;;;2.65;;
55589;SDS011;41452;42.780;23.116;2023-08-06T01:26:39;6.10;;;2.95;;
55589;SDS011;41452;42.780;23.116;2023-08-06T01:29:31;6.75;;;2.50;;
55589;SDS011;41452;42.780;23.116;2023-08-06T01:32:10;6.53;;;2.45;;
55589;SDS011;41452;42.780;23.116;2023-08-06T01:34:36;4.47;;;2.08;;
55589;SDS011;41452;42.780;23.116;2023-08-06T01:37:05;8.93;;;2.35;;
55589;SDS011;41452;42.780;23.116;2023-08-06T01:39:33;5.47;;;2.10;;
55589;SDS011;41452;42.780;23.116;2023-08-06T01:41:59;6.22;;;2.10;;
55589;SDS011;41452;42.780;23.116;2023-08-06T01:44:24;10.45;;;2.20;;
55589;SDS011;41452;42.780;23.116;2023-08-06T01:46:49;4.13;;;1.67;;
55589;SDS011;41452;42.780;23.116;2023-08-06T01:49:15;3.83;;;1.60;;
55589;SDS011;41452;42.780;23.116;2023-08-06T01:51:40;4.20;;;2.08;;
55589;SDS011;41452;42.780;23.116;2023-08-06T01:54:06;5.38;;;1.70;;
55589;SDS011;41452;42.780;23.116;2023-08-06T01:56:31;6.68;;;2.17;;
55589;SDS011;41452;42.780;23.116;2023-08-06T01:58:57;6.22;;;2.08;;
55589;SDS011;41452;42.780;23.116;2023-08-06T02:01:22;4.72;;;2.00;;
55589;SDS011;41452;42.780;23.116;2023-08-06T02:03:47;7.00;;;2.55;;
55589;SDS011;41452;42.780;23.116;2023-08-06T02:06:13;12.32;;;2.65;;
55589;SDS011;41452;42.780;23.116;2023-08-06T02:08:38;5.95;;;1.88;;
55589;SDS011;41452;42.780;23.116;2023-08-06T02:11:04;3.95;;;1.90;;
55589;SDS011;41452;42.780;23.116;2023-08-06T02:13:30;5.32;;;2.10;;
55589;SDS011;41452;42.780;23.116;2023-08-06T02:15:55;5.10;;;2.05;;
55589;SDS011;41452;42.780;23.116;2023-08-06T02:18:21;2.55;;;1.65;;
55589;SDS011;41452;42.780;23.116;2023-08-06T02:20:56;4.35;;;1.75;;
55589;SDS011;41452;42.780;23.116;2023-08-06T02:23:25;4.25;;;2.00;;
55589;SDS011;41452;42.780;23.116;2023-08-06T02:26:00;5.68;;;2.00;;
55589;SDS011;41452;42.780;23.116;2023-08-06T02:28:26;3.40;;;1.58;;
55589;SDS011;41452;42.780;23.116;2023-08-06T02:30:51;6.20;;;2.00;;
55589;SDS011;41452;42.780;23.116;2023-08-06T02:33:17;4.97;;;1.55;;
55589;SDS011;41452;42.780;23.116;2023-08-06T02:35:42;3.50;;;1.70;;
55589;SDS011;41452;42.780;23.116;2023-08-06T02:38:08;3.78;;;1.65;;
55589;SDS011;41452;42.780;23.116;2023-08-06T02:40:33;3.45;;;1.98;;
55589;SDS011;41452;42.780;23.116;2023-08-06T02:42:59;6.70;;;2.35;;
55589;SDS011;41452;42.780;23.116;2023-08-06T02:45:24;5.20;;;1.80;;
55589;SDS011;41452;42.780;23.116;2023-08-06T02:47:49;6.82;;;1.83;;
55589;SDS011;41452;42.780;23.116;2023-08-06T02:50:15;4.30;;;2.08;;
55589;SDS011;41452;42.780;23.116;2023-08-06T02:52:40;4.32;;;2.20;;
55589;SDS011;41452;42.780;23.116;2023-08-06T02:55:06;4.85;;;1.70;;
55589;SDS011;41452;42.780;23.116;2023-08-06T02:57:32;3.03;;;1.83;;
55589;SDS011;41452;42.780;23.116;2023-08-06T02:59:57;3.97;;;1.92;;
55589;SDS011;41452;42.780;23.116;2023-08-06T03:02:22;4.10;;;2.30;;
55589;SDS011;41452;42.780;23.116;2023-08-06T03:04:48;4.57;;;1.88;;
55589;SDS011;41452;42.780;23.116;2023-08-06T03:07:13;5.30;;;2.10;;
55589;SDS011;41452;42.780;23.116;2023-08-06T03:09:39;13.40;;;2.10;;
55589;SDS011;41452;42.780;23.116;2023-08-06T03:12:04;4.40;;;1.85;;
55589;SDS011;41452;42.780;23.116;2023-08-06T03:14:30;6.53;;;2.05;;
55589;SDS011;41452;42.780;23.116;2023-08-06T03:16:55;5.38;;;1.75;;
55589;SDS011;41452;42.780;23.116;2023-08-06T03:19:20;4.03;;;2.13;;
55589;SDS011;41452;42.780;23.116;2023-08-06T03:21:46;5.32;;;2.15;;
55589;SDS011;41452;42.780;23.116;2023-08-06T03:24:13;3.00;;;1.80;;
55589;SDS011;41452;42.780;23.116;2023-08-06T03:26:39;3.63;;;2.03;;
55589;SDS011;41452;42.780;23.116;2023-08-06T03:29:04;3.38;;;2.00;;
55589;SDS011;41452;42.780;23.116;2023-08-06T03:31:29;2.63;;;1.65;;
55589;SDS011;41452;42.780;23.116;2023-08-06T03:33:55;4.65;;;2.00;;
55589;SDS011;41452;42.780;23.116;2023-08-06T03:36:20;5.25;;;2.13;;
55589;SDS011;41452;42.780;23.116;2023-08-06T03:38:46;5.28;;;2.70;;
55589;SDS011;41452;42.780;23.116;2023-08-06T03:41:11;4.55;;;2.40;;
55589;SDS011;41452;42.780;23.116;2023-08-06T03:43:36;8.35;;;2.85;;
55589;SDS011;41452;42.780;23.116;2023-08-06T03:46:02;14.88;;;2.75;;
55589;SDS011;41452;42.780;23.116;2023-08-06T03:48:27;3.35;;;2.10;;
55589;SDS011;41452;42.780;23.116;2023-08-06T03:50:52;5.53;;;2.75;;
55589;SDS011;41452;42.780;23.116;2023-08-06T03:53:18;3.88;;;2.65;;
55589;SDS011;41452;42.780;23.116;2023-08-06T03:55:43;4.60;;;2.45;;
55589;SDS011;41452;42.780;23.116;2023-08-06T03:58:09;15.82;;;3.17;;
55589;SDS011;41452;42.780;23.116;2023-08-06T04:00:34;2.88;;;1.85;;
55589;SDS011;41452;42.780;23.116;2023-08-06T04:02:59;3.72;;;2.03;;
55589;SDS011;41452;42.780;23.116;2023-08-06T04:05:25;4.70;;;2.00;;
55589;SDS011;41452;42.780;23.116;2023-08-06T04:07:50;3.17;;;1.80;;
55589;SDS011;41452;42.780;23.116;2023-08-06T04:10:16;3.00;;;1.98;;
55589;SDS011;41452;42.780;23.116;2023-08-06T04:12:41;2.83;;;1.58;;
55589;SDS011;41452;42.780;23.116;2023-08-06T04:15:06;4.40;;;2.25;;
55589;SDS011;41452;42.780;23.116;2023-08-06T04:17:32;3.60;;;2.08;;
55589;SDS011;41452;42.780;23.116;2023-08-06T04:19:57;4.78;;;2.00;;
55589;SDS011;41452;42.780;23.116;2023-08-06T04:22:25;4.13;;;2.28;;
55589;SDS011;41452;42.780;23.116;2023-08-06T04:24:51;3.22;;;1.73;;
55589;SDS011;41452;42.780;23.116;2023-08-06T04:27:17;3.30;;;2.17;;
55589;SDS011;41452;42.780;23.116;2023-08-06T04:29:44;3.20;;;1.75;;
55589;SDS011;41452;42.780;23.116;2023-08-06T04:32:09;3.67;;;2.05;;
55589;SDS011;41452;42.780;23.116;2023-08-06T04:34:35;3.67;;;1.80;;
55589;SDS011;41452;42.780;23.116;2023-08-06T04:37:02;3.90;;;2.05;;
55589;SDS011;41452;42.780;23.116;2023-08-06T04:39:28;3.92;;;2.03;;
55589;SDS011;41452;42.780;23.116;2023-08-06T04:41:54;3.83;;;2.08;;
55589;SDS011;41452;42.780;23.116;2023-08-06T04:44:21;4.20;;;2.25;;
55589;SDS011;41452;42.780;23.116;2023-08-06T04:46:46;3.88;;;2.25;;
55589;SDS011;41452;42.780;23.116;2023-08-06T04:49:12;3.42;;;2.42;;
55589;SDS011;41452;42.780;23.116;2023-08-06T04:51:37;3.53;;;2.33;;
55589;SDS011;41452;42.780;23.116;2023-08-06T04:54:03;4.03;;;2.08;;
55589;SDS011;41452;42.780;23.116;2023-08-06T04:56:29;2.95;;;1.88;;
55589;SDS011;41452;42.780;23.116;2023-08-06T04:58:54;3.60;;;2.28;;
55589;SDS011;41452;42.780;23.116;2023-08-06T05:01:19;3.40;;;2.00;;
55589;SDS011;41452;42.780;23.116;2023-08-06T05:03:46;3.78;;;2.10;;
55589;SDS011;41452;42.780;23.116;2023-08-06T05:06:12;6.50;;;2.70;;
55589;SDS011;41452;42.780;23.116;2023-08-06T05:08:38;3.70;;;2.28;;
55589;SDS011;41452;42.780;23.116;2023-08-06T05:11:03;3.20;;;2.33;;
55589;SDS011;41452;42.780;23.116;2023-08-06T05:13:28;4.07;;;2.50;;
55589;SDS011;41452;42.780;23.116;2023-08-06T05:15:54;3.47;;;2.35;;
55589;SDS011;41452;42.780;23.116;2023-08-06T05:18:20;3.38;;;2.10;;
55589;SDS011;41452;42.780;23.116;2023-08-06T05:20:45;4.85;;;2.45;;
55589;SDS011;41452;42.780;23.116;2023-08-06T05:23:11;4.57;;;2.20;;
55589;SDS011;41452;42.780;23.116;2023-08-06T05:25:37;6.28;;;2.17;;
55589;SDS011;41452;42.780;23.116;2023-08-06T05:28:02;4.65;;;2.50;;
55589;SDS011;41452;42.780;23.116;2023-08-06T05:30:28;4.43;;;2.20;;
55589;SDS011;41452;42.780;23.116;2023-08-06T05:32:54;5.40;;;1.80;;
55589;SDS011;41452;42.780;23.116;2023-08-06T05:35:20;3.10;;;1.80;;
55589;SDS011;41452;42.780;23.116;2023-08-06T05:37:46;4.00;;;1.98;;
55589;SDS011;41452;42.780;23.116;2023-08-06T05:40:11;2.63;;;1.80;;
55589;SDS011;41452;42.780;23.116;2023-08-06T05:42:37;5.15;;;2.30;;
55589;SDS011;41452;42.780;23.116;2023-08-06T05:45:02;3.78;;;2.13;;
55589;SDS011;41452;42.780;23.116;2023-08-06T05:47:28;3.50;;;2.20;;
55589;SDS011;41452;42.780;23.116;2023-08-06T05:49:53;4.25;;;1.88;;
55589;SDS011;41452;42.780;23.116;2023-08-06T05:52:19;4.05;;;1.95;;
55589;SDS011;41452;42.780;23.116;2023-08-06T05:54:44;8.23;;;2.42;;
55589;SDS011;41452;42.780;23.116;2023-08-06T05:57:09;3.60;;;2.30;;
55589;SDS011;41452;42.780;23.116;2023-08-06T05:59:35;4.15;;;2.30;;
55589;SDS011;41452;42.780;23.116;2023-08-06T06:02:00;3.88;;;2.47;;
55589;SDS011;41452;42.780;23.116;2023-08-06T06:04:25;4.82;;;2.45;;
55589;SDS011;41452;42.780;23.116;2023-08-06T06:06:51;4.50;;;2.28;;
55589;SDS011;41452;42.780;23.116;2023-08-06T06:09:16;5.32;;;2.70;;
55589;SDS011;41452;42.780;23.116;2023-08-06T06:11:41;3.72;;;2.35;;
55589;SDS011;41452;42.780;23.116;2023-08-06T06:14:07;5.97;;;2.60;;
55589;SDS011;41452;42.780;23.116;2023-08-06T06:16:33;5.05;;;2.25;;
55589;SDS011;41452;42.780;23.116;2023-08-06T06:18:59;6.45;;;2.83;;
55589;SDS011;41452;42.780;23.116;2023-08-06T06:21:24;3.65;;;2.40;;
55589;SDS011;41452;42.780;23.116;2023-08-06T06:23:50;6.97;;;2.70;;
55589;SDS011;41452;42.780;23.116;2023-08-06T06:26:16;3.95;;;2.50;;
55589;SDS011;41452;42.780;23.116;2023-08-06T06:28:42;2.97;;;1.95;;
55589;SDS011;41452;42.780;23.116;2023-08-06T06:31:08;4.45;;;2.67;;
55589;SDS011;41452;42.780;23.116;2023-08-06T06:33:34;5.00;;;2.47;;
55589;SDS011;41452;42.780;23.116;2023-08-06T06:35:59;3.28;;;1.98;;
55589;SDS011;41452;42.780;23.116;2023-08-06T06:38:25;4.07;;;2.30;;
55589;SDS011;41452;42.780;23.116;2023-08-06T06:40:56;5.20;;;2.30;;
55589;SDS011;41452;42.780;23.116;2023-08-06T06:43:22;2.95;;;2.00;;
55589;SDS011;41452;42.780;23.116;2023-08-06T06:45:52;3.15;;;1.80;;
55589;SDS011;41452;42.780;23.116;2023-08-06T06:48:27;5.47;;;2.55;;
55589;SDS011;41452;42.780;23.116;2023-08-06T06:50:54;2.70;;;1.55;;
55589;SDS011;41452;42.780;23.116;2023-08-06T06:53:21;3.45;;;1.88;;
55589;SDS011;41452;42.780;23.116;2023-08-06T06:55:52;2.83;;;1.85;;
55589;SDS011;41452;42.780;23.116;2023-08-06T06:58:18;3.40;;;1.70;;
55589;SDS011;41452;42.780;23.116;2023-08-06T07:00:43;3.17;;;1.80;;
55589;SDS011;41452;42.780;23.116;2023-08-06T07:03:08;3.72;;;2.00;;
55589;SDS011;41452;42.780;23.116;2023-08-06T07:05:34;4.55;;;1.60;;
55589;SDS011;41452;42.780;23.116;2023-08-06T07:07:59;2.50;;;1.70;;
55589;SDS011;41452;42.780;23.116;2023-08-06T07:10:25;2.80;;;1.90;;
55589;SDS011;41452;42.780;23.116;2023-08-06T07:12:51;3.80;;;2.30;;
55589;SDS011;41452;42.780;23.116;2023-08-06T07:15:16;3.25;;;2.20;;
55589;SDS011;41452;42.780;23.116;2023-08-06T07:17:42;3.92;;;1.73;;
55589;SDS011;41452;42.780;23.116;2023-08-06T07:20:08;6.70;;;2.38;;
55589;SDS011;41452;42.780;23.116;2023-08-06T07:22:34;4.60;;;1.75;;
55589;SDS011;41452;42.780;23.116;2023-08-06T07:24:59;4.60;;;2.38;;
55589;SDS011;41452;42.780;23.116;2023-08-06T07:27:24;4.40;;;2.42;;
55589;SDS011;41452;42.780;23.116;2023-08-06T07:29:50;3.83;;;2.38;;
55589;SDS011;41452;42.780;23.116;2023-08-06T07:32:15;5.25;;;2.60;;
55589;SDS011;41452;42.780;23.116;2023-08-06T07:34:41;6.15;;;2.55;;
55589;SDS011;41452;42.780;23.116;2023-08-06T07:37:06;3.88;;;2.30;;
55589;SDS011;41452;42.780;23.116;2023-08-06T07:39:32;5.70;;;3.10;;
55589;SDS011;41452;42.780;23.116;2023-08-06T07:41:57;6.28;;;2.50;;
55589;SDS011;41452;42.780;23.116;2023-08-06T07:44:22;4.60;;;2.42;;
55589;SDS011;41452;42.780;23.116;2023-08-06T07:46:49;4.72;;;2.58;;
55589;SDS011;41452;42.780;23.116;2023-08-06T07:49:14;2.92;;;2.20;;
55589;SDS011;41452;42.780;23.116;2023-08-06T07:51:39;5.65;;;2.33;;
55589;SDS011;41452;42.780;23.116;2023-08-06T07:54:05;4.50;;;2.15;;
55589;SDS011;41452;42.780;23.116;2023-08-06T07:56:31;4.00;;;2.60;;
55589;SDS011;41452;42.780;23.116;2023-08-06T07:58:56;3.58;;;2.30;;
55589;SDS011;41452;42.780;23.116;2023-08-06T08:01:22;4.07;;;2.50;;
55589;SDS011;41452;42.780;23.116;2023-08-06T08:03:47;4.32;;;2.30;;
55589;SDS011;41452;42.780;23.116;2023-08-06T08:06:12;5.30;;;2.55;;
55589;SDS011;41452;42.780;23.116;2023-08-06T08:08:38;4.80;;;2.15;;
55589;SDS011;41452;42.780;23.116;2023-08-06T08:11:04;5.65;;;2.70;;
55589;SDS011;41452;42.780;23.116;2023-08-06T08:13:30;3.75;;;2.30;;
55589;SDS011;41452;42.780;23.116;2023-08-06T08:15:58;4.93;;;2.40;;
55589;SDS011;41452;42.780;23.116;2023-08-06T08:18:24;8.07;;;2.60;;
55589;SDS011;41452;42.780;23.116;2023-08-06T08:20:50;3.47;;;2.58;;
55589;SDS011;41452;42.780;23.116;2023-08-06T08:23:16;4.82;;;2.38;;
55589;SDS011;41452;42.780;23.116;2023-08-06T08:25:41;6.75;;;2.58;;
55589;SDS011;41452;42.780;23.116;2023-08-06T08:28:06;3.08;;;2.13;;
55589;SDS011;41452;42.780;23.116;2023-08-06T08:30:32;5.32;;;2.05;;
55589;SDS011;41452;42.780;23.116;2023-08-06T08:32:58;5.95;;;2.13;;
55589;SDS011;41452;42.780;23.116;2023-08-06T08:35:23;3.00;;;2.03;;
55589;SDS011;41452;42.780;23.116;2023-08-06T08:37:48;3.28;;;2.10;;
55589;SDS011;41452;42.780;23.116;2023-08-06T08:40:14;5.05;;;2.15;;
55589;SDS011;41452;42.780;23.116;2023-08-06T08:42:40;5.53;;;2.35;;
55589;SDS011;41452;42.780;23.116;2023-08-06T08:45:14;6.22;;;2.75;;
55589;SDS011;41452;42.780;23.116;2023-08-06T08:47:43;4.90;;;2.45;;
55589;SDS011;41452;42.780;23.116;2023-08-06T08:50:11;5.40;;;2.60;;
55589;SDS011;41452;42.780;23.116;2023-08-06T08:52:38;3.03;;;1.90;;
55589;SDS011;41452;42.780;23.116;2023-08-06T08:55:05;3.78;;;2.22;;
55589;SDS011;41452;42.780;23.116;2023-08-06T08:57:32;4.03;;;2.20;;
55589;SDS011;41452;42.780;23.116;2023-08-06T08:59:57;5.57;;;2.50;;
55589;SDS011;41452;42.780;23.116;2023-08-06T09:02:23;3.83;;;2.40;;
55589;SDS011;41452;42.780;23.116;2023-08-06T09:04:51;6.78;;;2.65;;
55589;SDS011;41452;42.780;23.116;2023-08-06T09:07:18;5.28;;;2.47;;
55589;SDS011;41452;42.780;23.116;2023-08-06T09:09:46;6.18;;;2.53;;
55589;SDS011;41452;42.780;23.116;2023-08-06T09:12:16;3.00;;;1.70;;
55589;SDS011;41452;42.780;23.116;2023-08-06T09:14:42;3.80;;;1.98;;
55589;SDS011;41452;42.780;23.116;2023-08-06T09:17:09;3.22;;;2.28;;
55589;SDS011;41452;42.780;23.116;2023-08-06T09:19:39;4.72;;;2.10;;
55589;SDS011;41452;42.780;23.116;2023-08-06T09:22:11;4.95;;;2.00;;
55589;SDS011;41452;42.780;23.116;2023-08-06T09:24:38;3.38;;;2.17;;
55589;SDS011;41452;42.780;23.116;2023-08-06T09:27:05;4.03;;;1.67;;
55589;SDS011;41452;42.780;23.116;2023-08-06T09:29:40;4.97;;;1.80;;
55589;SDS011;41452;42.780;23.116;2023-08-06T09:32:06;2.78;;;1.70;;
55589;SDS011;41452;42.780;23.116;2023-08-06T09:34:32;3.28;;;1.50;;
55589;SDS011;41452;42.780;23.116;2023-08-06T09:36:57;2.72;;;1.50;;
55589;SDS011;41452;42.780;23.116;2023-08-06T09:39:29;3.95;;;1.83;;
55589;SDS011;41452;42.780;23.116;2023-08-06T09:41:59;105.50;;;8.18;;
55589;SDS011;41452;42.780;23.116;2023-08-06T09:44:30;11.85;;;2.83;;
55589;SDS011;41452;42.780;23.116;2023-08-06T09:46:57;47.45;;;5.68;;
55589;SDS011;41452;42.780;23.116;2023-08-06T09:49:27;39.20;;;5.35;;
55589;SDS011;41452;42.780;23.116;2023-08-06T09:52:05;23.63;;;2.75;;
55589;SDS011;41452;42.780;23.116;2023-08-06T09:54:34;5.07;;;2.05;;
55589;SDS011;41452;42.780;23.116;2023-08-06T09:57:02;4.18;;;1.75;;
55589;SDS011;41452;42.780;23.116;2023-08-06T09:59:28;3.88;;;1.55;;
55589;SDS011;41452;42.780;23.116;2023-08-06T10:01:53;5.10;;;1.70;;
55589;SDS011;41452;42.780;23.116;2023-08-06T10:04:20;4.57;;;2.03;;
55589;SDS011;41452;42.780;23.116;2023-08-06T10:06:46;3.55;;;1.67;;
55589;SDS011;41452;42.780;23.116;2023-08-06T10:09:15;4.25;;;1.70;;
55589;SDS011;41452;42.780;23.116;2023-08-06T10:11:42;2.97;;;1.88;;
55589;SDS011;41452;42.780;23.116;2023-08-06T10:14:15;4.70;;;1.90;;
55589;SDS011;41452;42.780;23.116;2023-08-06T10:16:44;3.28;;;1.52;;
55589;SDS011;41452;42.780;23.116;2023-08-06T10:19:11;6.25;;;3.53;;
55589;SDS011;41452;42.780;23.116;2023-08-06T10:21:38;4.63;;;2.15;;
55589;SDS011;41452;42.780;23.116;2023-08-06T10:24:03;5.40;;;1.88;;
55589;SDS011;41452;42.780;23.116;2023-08-06T10:26:34;3.63;;;2.00;;
55589;SDS011;41452;42.780;23.116;2023-08-06T10:29:00;3.97;;;2.55;;
55589;SDS011;41452;42.780;23.116;2023-08-06T10:34:20;5.68;;;2.60;;
55589;SDS011;41452;42.780;23.116;2023-08-06T10:36:45;3.95;;;2.80;;
55589;SDS011;41452;42.780;23.116;2023-08-06T10:39:13;6.03;;;2.90;;
55589;SDS011;41452;42.780;23.116;2023-08-06T10:41:39;3.90;;;2.78;;
55589;SDS011;41452;42.780;23.116;2023-08-06T10:44:10;8.90;;;3.22;;
55589;SDS011;41452;42.780;23.116;2023-08-06T10:46:37;5.55;;;3.17;;
55589;SDS011;41452;42.780;23.116;2023-08-06T10:49:05;4.55;;;3.53;;
55589;SDS011;41452;42.780;23.116;2023-08-06T10:51:32;5.75;;;3.38;;
55589;SDS011;41452;42.780;23.116;2023-08-06T10:53:58;4.97;;;3.38;;
55589;SDS011;41452;42.780;23.116;2023-08-06T10:56:24;5.05;;;3.22;;
55589;SDS011;41452;42.780;23.116;2023-08-06T10:58:52;4.03;;;3.33;;
55589;SDS011;41452;42.780;23.116;2023-08-06T11:01:20;5.43;;;4.03;;
55589;SDS011;41452;42.780;23.116;2023-08-06T11:03:47;6.97;;;4.20;;
55589;SDS011;41452;42.780;23.116;2023-08-06T11:06:18;6.65;;;4.55;;
55589;SDS011;41452;42.780;23.116;2023-08-06T11:08:48;7.85;;;4.63;;
55589;SDS011;41452;42.780;23.116;2023-08-06T11:11:15;10.38;;;4.40;;
55589;SDS011;41452;42.780;23.116;2023-08-06T11:13:42;7.68;;;5.88;;
55589;SDS011;41452;42.780;23.116;2023-08-06T11:16:09;6.18;;;4.07;;
55589;SDS011;41452;42.780;23.116;2023-08-06T11:18:35;7.00;;;4.72;;
55589;SDS011;41452;42.780;23.116;2023-08-06T11:21:01;6.57;;;4.10;;
55589;SDS011;41452;42.780;23.116;2023-08-06T11:23:27;4.65;;;3.67;;
55589;SDS011;41452;42.780;23.116;2023-08-06T11:25:53;4.47;;;3.75;;
55589;SDS011;41452;42.780;23.116;2023-08-06T11:28:19;7.43;;;3.80;;
55589;SDS011;41452;42.780;23.116;2023-08-06T11:30:46;4.82;;;3.30;;
55589;SDS011;41452;42.780;23.116;2023-08-06T11:33:12;8.15;;;3.95;;
55589;SDS011;41452;42.780;23.116;2023-08-06T11:35:38;4.80;;;3.45;;
55589;SDS011;41452;42.780;23.116;2023-08-06T11:38:05;5.57;;;3.65;;
55589;SDS011;41452;42.780;23.116;2023-08-06T11:40:31;6.80;;;3.90;;
55589;SDS011;41452;42.780;23.116;2023-08-06T11:42:57;9.20;;;4.03;;
55589;SDS011;41452;42.780;23.116;2023-08-06T11:45:23;5.22;;;3.70;;
55589;SDS011;41452;42.780;23.116;2023-08-06T11:47:50;6.88;;;4.13;;
55589;SDS011;41452;42.780;23.116;2023-08-06T11:50:24;7.40;;;4.35;;
55589;SDS011;41452;42.780;23.116;2023-08-06T11:52:57;7.68;;;4.57;;
55589;SDS011;41452;42.780;23.116;2023-08-06T11:55:25;7.13;;;4.40;;
55589;SDS011;41452;42.780;23.116;2023-08-06T11:57:53;7.50;;;4.45;;
55589;SDS011;41452;42.780;23.116;2023-08-06T12:00:19;9.93;;;4.40;;
55589;SDS011;41452;42.780;23.116;2023-08-06T12:02:47;6.10;;;4.22;;
55589;SDS011;41452;42.780;23.116;2023-08-06T12:05:20;5.85;;;3.78;;
55589;SDS011;41452;42.780;23.116;2023-08-06T12:10:21;6.50;;;4.28;;
55589;SDS011;41452;42.780;23.116;2023-08-06T12:12:48;6.90;;;4.25;;
55589;SDS011;41452;42.780;23.116;2023-08-06T12:15:15;5.07;;;4.10;;
55589;SDS011;41452;42.780;23.116;2023-08-06T12:17:40;6.45;;;4.07;;
55589;SDS011;41452;42.780;23.116;2023-08-06T12:20:06;5.30;;;4.03;;
55589;SDS011;41452;42.780;23.116;2023-08-06T12:22:32;7.13;;;4.60;;
55589;SDS011;41452;42.780;23.116;2023-08-06T12:25:02;6.28;;;3.95;;
55589;SDS011;41452;42.780;23.116;2023-08-06T12:27:32;5.10;;;3.90;;
55589;SDS011;41452;42.780;23.116;2023-08-06T12:30:01;6.43;;;4.13;;
55589;SDS011;41452;42.780;23.116;2023-08-06T12:32:28;6.07;;;3.72;;
55589;SDS011;41452;42.780;23.116;2023-08-06T12:34:54;5.75;;;4.07;;
55589;SDS011;41452;42.780;23.116;2023-08-06T12:37:19;6.93;;;4.18;;
55589;SDS011;41452;42.780;23.116;2023-08-06T12:39:45;5.53;;;3.50;;
55589;SDS011;41452;42.780;23.116;2023-08-06T12:42:10;6.00;;;3.92;;
55589;SDS011;41452;42.780;23.116;2023-08-06T12:44:36;5.30;;;3.75;;
55589;SDS011;41452;42.780;23.116;2023-08-06T12:47:01;7.38;;;3.80;;
55589;SDS011;41452;42.780;23.116;2023-08-06T12:49:27;10.70;;;3.42;;
55589;SDS011;41452;42.780;23.116;2023-08-06T12:51:53;5.25;;;3.60;;
55589;SDS011;41452;42.780;23.116;2023-08-06T12:54:20;5.38;;;3.60;;
55589;SDS011;41452;42.780;23.116;2023-08-06T12:56:46;4.82;;;3.75;;
55589;SDS011;41452;42.780;23.116;2023-08-06T12:59:15;6.03;;;3.80;;
55589;SDS011;41452;42.780;23.116;2023-08-06T13:01:41;5.28;;;3.60;;
55589;SDS011;41452;42.780;23.116;2023-08-06T13:04:08;7.20;;;4.05;;
55589;SDS011;41452;42.780;23.116;2023-08-06T13:06:33;7.60;;;4.22;;
55589;SDS011;41452;42.780;23.116;2023-08-06T13:09:11;6.90;;;3.50;;
55589;SDS011;41452;42.780;23.116;2023-08-06T13:11:37;6.45;;;3.88;;
55589;SDS011;41452;42.780;23.116;2023-08-06T13:14:05;6.70;;;4.03;;
55589;SDS011;41452;42.780;23.116;2023-08-06T13:16:35;5.93;;;3.75;;
55589;SDS011;41452;42.780;23.116;2023-08-06T13:19:01;6.60;;;3.75;;
55589;SDS011;41452;42.780;23.116;2023-08-06T13:21:31;5.53;;;3.80;;
55589;SDS011;41452;42.780;23.116;2023-08-06T13:23:58;4.80;;;3.72;;
55589;SDS011;41452;42.780;23.116;2023-08-06T13:26:23;7.80;;;4.03;;
55589;SDS011;41452;42.780;23.116;2023-08-06T13:28:49;5.32;;;3.47;;
55589;SDS011;41452;42.780;23.116;2023-08-06T13:31:14;8.27;;;3.78;;
55589;SDS011;41452;42.780;23.116;2023-08-06T13:33:40;5.47;;;3.78;;
55589;SDS011;41452;42.780;23.116;2023-08-06T13:36:05;5.55;;;3.67;;
55589;SDS011;41452;42.780;23.116;2023-08-06T13:38:30;5.03;;;3.10;;
55589;SDS011;41452;42.780;23.116;2023-08-06T13:40:56;7.65;;;4.05;;
55589;SDS011;41452;42.780;23.116;2023-08-06T13:43:21;4.60;;;3.13;;
55589;SDS011;41452;42.780;23.116;2023-08-06T13:45:46;8.00;;;3.53;;
55589;SDS011;41452;42.780;23.116;2023-08-06T13:48:12;7.65;;;3.45;;
55589;SDS011;41452;42.780;23.116;2023-08-06T13:50:37;7.70;;;3.63;;
55589;SDS011;41452;42.780;23.116;2023-08-06T13:53:03;6.95;;;3.20;;
55589;SDS011;41452;42.780;23.116;2023-08-06T13:55:28;5.40;;;3.60;;
55589;SDS011;41452;42.780;23.116;2023-08-06T13:57:55;5.30;;;3.28;;
55589;SDS011;41452;42.780;23.116;2023-08-06T14:00:21;3.80;;;2.90;;
55589;SDS011;41452;42.780;23.116;2023-08-06T14:02:46;6.22;;;3.22;;
55589;SDS011;41452;42.780;23.116;2023-08-06T14:05:11;5.25;;;3.38;;
55589;SDS011;41452;42.780;23.116;2023-08-06T14:07:37;5.05;;;3.20;;
55589;SDS011;41452;42.780;23.116;2023-08-06T14:10:02;8.23;;;3.63;;
55589;SDS011;41452;42.780;23.116;2023-08-06T14:12:28;9.27;;;3.70;;
55589;SDS011;41452;42.780;23.116;2023-08-06T14:14:53;4.25;;;2.80;;
55589;SDS011;41452;42.780;23.116;2023-08-06T14:17:18;5.28;;;3.05;;
55589;SDS011;41452;42.780;23.116;2023-08-06T14:19:44;5.28;;;3.15;;
55589;SDS011;41452;42.780;23.116;2023-08-06T14:22:09;4.72;;;3.10;;
55589;SDS011;41452;42.780;23.116;2023-08-06T14:24:34;6.72;;;3.28;;
55589;SDS011;41452;42.780;23.116;2023-08-06T14:27:00;9.00;;;3.22;;
55589;SDS011;41452;42.780;23.116;2023-08-06T14:29:25;4.85;;;3.20;;
55589;SDS011;41452;42.780;23.116;2023-08-06T14:31:51;4.47;;;3.17;;
55589;SDS011;41452;42.780;23.116;2023-08-06T14:34:16;4.30;;;2.80;;
55589;SDS011;41452;42.780;23.116;2023-08-06T14:36:42;5.10;;;3.03;;
55589;SDS011;41452;42.780;23.116;2023-08-06T14:39:07;5.28;;;3.08;;